Mozart, Arkansas
Current Conditions -  °F | °C
As of 11:35 PM on Sunday 21 Dec 2014 (Local Time) from KCCA Reporting Station
Overcast Overcast  
Wind Chill:   Ceiling: 3000
Heat Index:   Visibility: 8mi
Dew Point:   Wind: 0mph
Humidity: 76%   Direction: NA
Pressure: 29.89"   Gusts: NA
Location:  35.7627°N, 92.308°W
Report Text: KCCA 220535Z AUTO 00000KT 8SM OVC030 08/04 A2989 RMK AO2
Loading
Personal Weather Stations






























Interactive Weather Map New forecast layout! Learn more

10-Day Weather Forecast

Advertisements
Track Severe Weather on mobile